Time;durP1;ratioP1;P1;durP2;ratioP2;P2;SDS_P1;SDS_P2;PMS_P1;PMS_P2;Temp;Humidity;BMP_temperature;BMP_pressure;BME280_temperature;BME280_humidity;BME280_pressure;Samples;Min_cycle;Max_cycle;Signal;HPM_P1;HPM_P2
2023/01/19 00:01:23;;;;;;;9.57;6.68;;;;;;;3.19;100.00;97850.28;5139482;28;20069;-73
2023/01/19 00:03:50;;;;;;;12.43;7.72;;;;;;;3.16;100.00;97856.41;5140049;28;20047;-73
2023/01/19 00:06:17;;;;;;;13.85;8.85;;;;;;;3.45;100.00;97871.47;5139814;28;20492;-71
2023/01/19 00:08:44;;;;;;;13.32;9.15;;;;;;;3.34;100.00;97878.56;5139238;28;20059;-73
2023/01/19 00:11:11;;;;;;;14.15;9.20;;;;;;;3.31;100.00;97884.66;5139321;28;20411;-70
2023/01/19 00:13:38;;;;;;;18.15;10.50;;;;;;;3.26;100.00;97895.75;5138858;27;20050;-70
2023/01/19 00:16:06;;;;;;;14.43;9.77;;;;;;;3.19;100.00;97901.75;5139577;28;20062;-70
2023/01/19 00:18:32;;;;;;;15.45;10.45;;;;;;;3.27;100.00;97914.38;5139188;28;20047;-73
2023/01/19 00:20:58;;;;;;;13.68;8.52;;;;;;;3.22;100.00;97911.91;5139420;28;20066;-69
2023/01/19 00:23:25;;;;;;;12.98;8.05;;;;;;;3.18;100.00;97921.84;5139132;28;20050;-72
2023/01/19 00:25:51;;;;;;;13.15;8.65;;;;;;;3.01;100.00;97922.16;5139438;28;20051;-70
2023/01/19 00:28:18;;;;;;;13.95;8.75;;;;;;;3.28;100.00;97931.41;5138945;28;20055;-71
2023/01/19 00:30:44;;;;;;;11.73;7.20;;;;;;;3.21;100.00;97920.38;5139379;28;20293;-72
2023/01/19 00:33:13;;;;;;;9.68;6.93;;;;;;;3.23;100.00;97918.91;5139079;28;20051;-70
2023/01/19 00:35:41;;;;;;;7.55;5.38;;;;;;;2.98;100.00;97901.97;5138799;28;20051;-72
2023/01/19 00:38:07;;;;;;;9.73;5.72;;;;;;;2.99;100.00;97908.16;5139093;28;20047;-67
2023/01/19 00:40:33;;;;;;;9.48;6.30;;;;;;;3.18;100.00;97927.28;5138761;28;20057;-72
2023/01/19 00:42:59;;;;;;;10.48;6.97;;;;;;;2.99;100.00;97937.94;5138862;28;20138;-70
2023/01/19 00:45:26;;;;;;;12.95;7.45;;;;;;;2.98;100.00;97937.16;5138686;28;20112;-72
2023/01/19 00:47:55;;;;;;;10.63;6.43;;;;;;;2.93;100.00;97945.56;5139085;28;20051;-68
2023/01/19 00:50:23;;;;;;;8.65;6.32;;;;;;;2.94;100.00;97949.03;5138576;28;20100;-73
2023/01/19 00:52:51;;;;;;;10.07;6.32;;;;;;;2.88;100.00;97943.06;5138914;28;20051;-69
2023/01/19 00:55:18;;;;;;;11.32;7.72;;;;;;;2.91;100.00;97947.03;5138522;28;20419;-70
2023/01/19 00:57:44;;;;;;;10.52;6.70;;;;;;;2.98;100.00;97955.34;5138886;28;20565;-72
2023/01/19 01:00:12;;;;;;;11.00;6.50;;;;;;;2.96;100.00;97952.19;5138396;28;20073;-68
2023/01/19 01:02:39;;;;;;;13.70;6.00;;;;;;;2.91;100.00;97944.31;5138267;28;20053;-68
2023/01/19 01:05:06;;;;;;;9.93;6.72;;;;;;;2.96;100.00;97938.63;5138451;28;20047;-69
2023/01/19 01:07:39;;;;;;;10.30;6.53;;;;;;;2.87;100.00;97946.13;5138272;28;20055;-67
2023/01/19 01:10:07;;;;;;;12.15;7.22;;;;;;;2.93;100.00;97950.97;5138453;28;20142;-73
2023/01/19 01:12:34;;;;;;;9.57;6.32;;;;;;;3.02;100.00;97959.72;5138087;28;20047;-72
2023/01/19 01:15:00;;;;;;;12.02;6.72;;;;;;;2.97;100.00;97978.13;5138502;28;20457;-70
2023/01/19 01:17:27;;;;;;;8.18;5.18;;;;;;;2.85;100.00;97951.09;5138087;28;20050;-70
2023/01/19 01:19:53;;;;;;;11.38;7.20;;;;;;;2.99;100.00;97976.63;5138217;28;20047;-70
2023/01/19 01:22:19;;;;;;;10.75;6.88;;;;;;;3.01;100.00;97960.06;5138284;28;20335;-71
2023/01/19 01:24:46;;;;;;;8.40;4.88;;;;;;;2.87;100.00;97938.00;5137566;27;20055;-72
2023/01/19 01:27:12;;;;;;;7.68;5.05;;;;;;;2.80;100.00;97947.50;5138249;28;20047;-68
2023/01/19 01:29:40;;;;;;;8.73;5.13;;;;;;;2.90;100.00;97946.25;5137959;28;20378;-73
2023/01/19 01:32:06;;;;;;;9.32;6.65;;;;;;;2.92;100.00;97964.84;5137965;28;20083;-73
2023/01/19 01:34:32;;;;;;;8.40;5.38;;;;;;;2.91;100.00;97965.97;5138078;28;20057;-70
2023/01/19 01:36:58;;;;;;;10.85;6.35;;;;;;;2.97;100.00;97967.31;5138199;28;20051;-70
2023/01/19 01:39:25;;;;;;;9.90;6.60;;;;;;;2.94;100.00;97976.91;5137827;28;20051;-70
2023/01/19 01:41:52;;;;;;;8.88;6.25;;;;;;;2.94;100.00;97979.59;5138253;28;20123;-69
2023/01/19 01:44:48;;;;;;;9.88;6.88;;;;;;;2.95;100.00;97983.09;5137687;28;20055;-68
2023/01/19 01:47:17;;;;;;;10.88;6.70;;;;;;;2.94;100.00;97982.31;5138181;28;20075;-73
2023/01/19 01:49:44;;;;;;;9.00;6.00;;;;;;;3.03;100.00;97992.97;5138037;28;20057;-73
2023/01/19 01:52:11;;;;;;;12.23;7.03;;;;;;;2.99;100.00;97983.97;5137791;28;20065;-69
2023/01/19 01:54:37;;;;;;;9.85;6.55;;;;;;;2.99;100.00;98013.75;5137905;28;20062;-70
2023/01/19 01:57:11;;;;;;;11.75;7.30;;;;;;;2.95;100.00;98016.38;5137627;28;20423;-70
2023/01/19 01:59:43;;;;;;;12.47;6.97;;;;;;;3.00;100.00;98021.56;5137937;28;20328;-68
2023/01/19 02:05:02;;;;;;;15.32;7.70;;;;;;;2.92;100.00;98036.00;5138097;28;20076;-70
2023/01/19 02:13:19;;;;;;;;;;;;;;;2.89;100.00;98038.59;5138149;28;20131;-68
2023/01/19 02:15:46;;;;;;;10.88;6.68;;;;;;;2.96;100.00;98045.00;5137276;28;19923;-72
2023/01/19 02:18:13;;;;;;;11.13;6.88;;;;;;;3.12;100.00;98030.78;5137646;28;20073;-68
2023/01/19 02:20:44;;;;;;;10.98;6.78;;;;;;;2.94;100.00;98014.00;5137264;28;20103;-68
2023/01/19 02:23:17;;;;;;;11.93;6.35;;;;;;;2.87;100.00;98008.41;5137654;28;20411;-68
2023/01/19 02:25:46;;;;;;;12.05;7.43;;;;;;;3.01;100.00;98011.50;5137114;28;20089;-72
2023/01/19 02:28:13;;;;;;;13.10;7.03;;;;;;;2.98;100.00;97995.94;5137098;28;20047;-72
2023/01/19 02:30:40;;;;;;;12.30;7.35;;;;;;;2.91;100.00;97995.75;5137486;28;20047;-67
2023/01/19 02:33:07;;;;;;;11.00;7.22;;;;;;;2.97;100.00;98016.03;5137142;28;20357;-70
2023/01/19 02:35:36;;;;;;;8.95;6.07;;;;;;;2.93;100.00;98009.72;5137818;27;20111;-69
2023/01/19 02:38:03;;;;;;;9.75;5.80;;;;;;;2.89;100.00;98003.41;5140603;28;20376;-70
2023/01/19 02:40:30;;;;;;;11.45;6.82;;;;;;;2.94;100.00;98028.34;5140983;28;20047;-68
2023/01/19 02:42:59;;;;;;;8.45;4.63;;;;;;;2.90;100.00;98013.09;5140748;28;20047;-67
2023/01/19 02:45:27;;;;;;;10.30;6.45;;;;;;;2.95;100.00;98012.88;5141039;28;20107;-69
2023/01/19 02:47:53;;;;;;;9.35;6.32;;;;;;;3.22;100.00;98041.13;5140575;28;20057;-67
2023/01/19 02:50:49;;;;;;;10.90;6.25;;;;;;;3.23;100.00;97997.44;5140992;28;20043;-68
2023/01/19 02:53:42;;;;;;;8.32;5.85;;;;;;;3.13;100.00;98043.16;5105569;28;20129;-72
2023/01/19 02:56:31;;;;;;;7.78;5.85;;;;;;;3.42;100.00;98001.41;5138223;28;20058;-68
2023/01/19 02:59:02;;;;;;;9.23;5.63;;;;;;;3.30;100.00;97942.69;5140810;28;20066;-67
2023/01/19 03:01:40;;;;;;;7.47;5.25;;;;;;;2.90;100.00;98000.38;5140346;28;20103;-70
2023/01/19 03:04:13;;;;;;;8.32;4.97;;;;;;;3.36;100.00;97983.84;5140570;28;20057;-67
2023/01/19 03:06:46;;;;;;;7.13;5.25;;;;;;;2.90;100.00;97921.06;5140411;28;20051;-67
2023/01/19 03:09:20;;;;;;;6.80;4.57;;;;;;;2.76;100.00;97914.13;5140400;28;20047;-70
2023/01/19 03:11:53;;;;;;;4.50;3.72;;;;;;;2.88;100.00;97936.88;5140612;28;20050;-70
2023/01/19 03:14:24;;;;;;;6.43;4.60;;;;;;;2.75;100.00;97899.03;5140761;28;20409;-71
2023/01/19 03:16:54;;;;;;;5.22;3.55;;;;;;;2.76;100.00;97835.63;5140716;28;20047;-72
2023/01/19 03:19:26;;;;;;;4.75;3.20;;;;;;;2.51;100.00;97751.09;5140353;28;20047;-67
2023/01/19 03:21:57;;;;;;;4.38;3.13;;;;;;;2.67;100.00;97709.75;5140497;28;20050;-67
2023/01/19 03:24:25;;;;;;;4.22;3.00;;;;;;;2.46;100.00;97709.97;5140311;28;20057;-72
2023/01/19 03:26:57;;;;;;;4.20;2.75;;;;;;;2.77;100.00;97739.78;5139928;28;20071;-67
2023/01/19 03:29:30;;;;;;;4.97;3.28;;;;;;;2.82;100.00;97695.44;5140119;28;20087;-72
2023/01/19 03:32:01;;;;;;;5.63;3.42;;;;;;;2.66;100.00;97698.13;5139801;28;20047;-73
2023/01/19 03:34:28;;;;;;;4.10;3.22;;;;;;;2.86;100.00;97700.94;5139915;28;20110;-70
2023/01/19 03:37:01;;;;;;;4.93;2.88;;;;;;;2.89;100.00;97684.00;5139785;28;20061;-72
2023/01/19 03:39:28;;;;;;;4.32;2.60;;;;;;;2.86;100.00;97636.75;5140047;28;20050;-70
2023/01/19 03:41:57;;;;;;;5.03;3.80;;;;;;;3.24;100.00;97586.56;5139674;28;20047;-68
2023/01/19 03:44:28;;;;;;;5.00;3.40;;;;;;;2.89;100.00;97584.63;5140107;28;20419;-72
2023/01/19 03:46:56;;;;;;;3.53;2.92;;;;;;;2.89;100.00;97608.22;5139837;27;20047;-73
2023/01/19 03:49:22;;;;;;;3.97;3.03;;;;;;;2.86;100.00;97638.69;5139199;28;20054;-73
2023/01/19 03:51:48;;;;;;;5.85;3.40;;;;;;;2.97;100.00;97650.56;5139905;28;20158;-68
2023/01/19 03:54:15;;;;;;;5.82;3.38;;;;;;;2.71;100.00;97670.81;5139544;28;20065;-69
2023/01/19 03:56:42;;;;;;;4.47;3.40;;;;;;;2.65;100.00;97739.88;5139770;28;20050;-72
2023/01/19 03:59:08;;;;;;;3.95;3.13;;;;;;;2.85;100.00;97762.41;5139425;28;20085;-69
2023/01/19 04:01:35;;;;;;;5.65;3.33;;;;;;;2.65;100.00;97772.31;5139737;28;20145;-72
2023/01/19 04:04:01;;;;;;;8.23;3.08;;;;;;;2.55;100.00;97781.72;5139606;28;20054;-68
2023/01/19 04:06:28;;;;;;;4.60;3.22;;;;;;;2.67;100.00;97818.78;5139800;28;20055;-72
2023/01/19 04:08:54;;;;;;;5.25;3.22;;;;;;;2.48;100.00;97837.56;5139300;28;20051;-67
2023/01/19 04:11:20;;;;;;;4.90;3.58;;;;;;;2.54;100.00;97844.31;5139777;28;20057;-70
2023/01/19 04:13:47;;;;;;;7.28;4.03;;;;;;;2.49;100.00;97861.56;5139563;28;20059;-70
2023/01/19 04:16:13;;;;;;;5.45;3.60;;;;;;;2.49;100.00;97883.19;5139445;28;20051;-70
2023/01/19 04:18:40;;;;;;;4.60;3.30;;;;;;;2.56;100.00;97879.91;5139151;28;20055;-70
2023/01/19 04:21:07;;;;;;;7.38;3.88;;;;;;;2.61;100.00;97898.63;5139246;28;20328;-72
2023/01/19 04:23:34;;;;;;;5.93;4.05;;;;;;;2.46;100.00;97892.00;5139324;28;20047;-72
2023/01/19 04:26:02;;;;;;;7.78;4.38;;;;;;;2.76;100.00;97932.28;5139129;28;20336;-69
2023/01/19 04:28:29;;;;;;;6.55;4.22;;;;;;;2.78;100.00;97897.56;5139325;28;20367;-67
2023/01/19 04:30:55;;;;;;;5.45;3.83;;;;;;;2.59;100.00;97871.09;5138974;28;20408;-68
2023/01/19 04:33:22;;;;;;;5.45;4.05;;;;;;;2.63;100.00;97904.47;5139180;28;20062;-73
2023/01/19 04:35:51;;;;;;;6.65;4.32;;;;;;;2.56;100.00;97901.56;5138841;28;20087;-68
2023/01/19 04:38:18;;;;;;;6.38;4.03;;;;;;;2.63;100.00;97961.28;5139161;28;20050;-67
2023/01/19 04:40:44;;;;;;;5.88;4.38;;;;;;;2.89;100.00;97973.63;5138976;28;20058;-68
2023/01/19 04:43:11;;;;;;;7.47;5.00;;;;;;;2.59;100.00;97972.00;5138913;28;20051;-72
2023/01/19 04:45:37;;;;;;;5.13;3.90;;;;;;;2.64;100.00;97976.41;5138704;28;20043;-72
2023/01/19 04:48:04;;;;;;;8.32;4.47;;;;;;;2.78;100.00;97986.88;5138857;28;20072;-68
2023/01/19 04:50:31;;;;;;;7.65;4.85;;;;;;;2.78;100.00;97982.22;5139040;28;20062;-73
2023/01/19 04:52:58;;;;;;;8.85;4.72;;;;;;;2.70;100.00;97999.41;5139025;28;20050;-70
2023/01/19 04:55:24;;;;;;;7.75;4.80;;;;;;;2.92;100.00;98017.03;5139109;28;20043;-68
2023/01/19 04:57:51;;;;;;;7.63;4.90;;;;;;;2.98;100.00;98004.84;5138580;28;20047;-67
2023/01/19 05:00:18;;;;;;;7.07;4.68;;;;;;;3.16;100.00;97934.94;5137530;27;20059;-73
2023/01/19 05:02:44;;;;;;;7.80;4.22;;;;;;;2.87;100.00;97940.72;5138027;28;20053;-68
2023/01/19 05:05:11;;;;;;;8.95;5.25;;;;;;;3.01;100.00;97917.53;5138762;28;20047;-72
2023/01/19 05:07:37;;;;;;;7.45;4.57;;;;;;;2.78;100.00;97944.34;5138236;28;20053;-68
2023/01/19 05:10:06;;;;;;;6.20;4.40;;;;;;;2.98;100.00;97975.06;5138200;28;20405;-70
2023/01/19 05:12:32;;;;;;;7.72;5.45;;;;;;;2.91;100.00;97982.22;5138228;28;20392;-68
2023/01/19 05:15:00;;;;;;;7.40;4.65;;;;;;;2.68;100.00;97971.88;5138350;28;20062;-68
2023/01/19 05:17:26;;;;;;;8.80;4.65;;;;;;;2.97;100.00;97995.16;5138142;28;20058;-69
2023/01/19 05:20:02;;;;;;;7.15;4.15;;;;;;;2.94;100.00;97957.16;5218219;27;20528;-71
2023/01/19 05:22:28;;;;;;;8.13;4.65;;;;;;;2.92;100.00;97973.72;5196459;27;20347;-73
2023/01/19 05:24:54;;;;;;;8.68;4.90;;;;;;;2.88;100.00;97948.50;5196743;27;20052;-69
2023/01/19 05:27:21;;;;;;;6.57;4.15;;;;;;;2.64;100.00;97968.28;5196777;27;20060;-73
2023/01/19 05:29:47;;;;;;;5.30;4.20;;;;;;;2.88;100.00;97975.56;5196636;27;20110;-68
2023/01/19 05:32:13;;;;;;;6.07;3.97;;;;;;;2.71;100.00;97936.03;5191280;27;20431;-73
2023/01/19 05:34:39;;;;;;;7.30;4.55;;;;;;;2.98;100.00;97987.81;5175320;27;20042;-68
2023/01/19 05:37:06;;;;;;;6.57;4.20;;;;;;;2.69;100.00;97929.38;5175640;27;20046;-73
2023/01/19 05:39:32;;;;;;;5.45;4.05;;;;;;;2.63;100.00;97984.84;5175181;27;20050;-70
2023/01/19 05:41:59;;;;;;;5.53;3.78;;;;;;;2.68;100.00;97963.75;5175561;27;20046;-72
2023/01/19 05:44:25;;;;;;;7.03;4.00;;;;;;;2.58;100.00;97985.88;5175127;27;20453;-68
2023/01/19 05:46:51;;;;;;;5.43;3.97;;;;;;;2.73;100.00;97998.72;5175401;27;20060;-73
2023/01/19 05:49:17;;;;;;;6.72;3.72;;;;;;;2.70;100.00;98004.81;5174971;27;20065;-67
2023/01/19 05:51:44;;;;;;;5.20;3.92;;;;;;;2.64;100.00;97995.34;5174847;27;20046;-74
2023/01/19 05:54:14;;;;;;;4.78;3.50;;;;;;;2.86;100.00;97993.25;5174975;27;20049;-72
2023/01/19 05:56:40;;;;;;;6.93;4.45;;;;;;;2.85;100.00;97940.28;5175131;27;20060;-69
2023/01/19 05:59:06;;;;;;;7.47;4.10;;;;;;;3.09;100.00;97942.09;5174885;27;20107;-70
2023/01/19 06:01:34;;;;;;;5.88;3.65;;;;;;;2.70;100.00;97901.97;5174726;27;20051;-71
2023/01/19 06:04:00;;;;;;;6.70;4.15;;;;;;;3.04;100.00;97949.34;5174806;27;20137;-71
2023/01/19 06:06:26;;;;;;;6.90;4.45;;;;;;;3.11;100.00;97899.22;5174841;27;20382;-68
2023/01/19 06:08:52;;;;;;;6.40;4.85;;;;;;;3.10;100.00;97868.66;5174797;27;20060;-70
2023/01/19 06:11:20;;;;;;;6.55;4.65;;;;;;;3.33;100.00;97900.56;5174477;27;20313;-69
2023/01/19 06:13:46;;;;;;;7.13;4.60;;;;;;;2.80;100.00;97919.66;5174907;27;20108;-71
2023/01/19 06:16:13;;;;;;;7.85;5.38;;;;;;;3.02;100.00;97953.50;5174265;27;20423;-70
2023/01/19 06:18:40;;;;;;;8.43;4.93;;;;;;;2.85;100.00;97970.03;5174431;27;20042;-70
2023/01/19 06:21:08;;;;;;;6.35;4.50;;;;;;;3.11;100.00;97983.94;5174138;27;20054;-73
2023/01/19 06:23:35;;;;;;;9.73;5.47;;;;;;;2.99;100.00;98000.22;5174679;27;20135;-72
2023/01/19 06:26:02;;;;;;;9.18;5.40;;;;;;;2.97;100.00;98024.94;5174683;27;20293;-68
2023/01/19 06:28:29;;;;;;;8.77;5.32;;;;;;;2.97;100.00;98040.41;5174301;27;20061;-70
2023/01/19 06:30:56;;;;;;;8.32;4.82;;;;;;;2.98;100.00;98058.22;5162857;27;20411;-73
2023/01/19 06:33:23;;;;;;;11.52;6.15;;;;;;;3.04;100.00;98075.81;5160335;27;20073;-71
2023/01/19 06:35:50;;;;;;;11.77;5.53;;;;;;;3.22;100.00;98077.13;5160715;27;20369;-69
2023/01/19 06:38:18;;;;;;;12.20;5.65;;;;;;;3.05;100.00;98109.88;5160330;27;20078;-72
2023/01/19 06:40:44;;;;;;;8.63;5.53;;;;;;;3.08;100.00;98117.31;5160800;27;20085;-73
2023/01/19 06:43:11;;;;;;;7.75;4.97;;;;;;;3.17;100.00;98107.16;5160148;27;20134;-72
2023/01/19 06:45:38;;;;;;;8.88;4.65;;;;;;;3.29;100.00;98106.31;5160554;27;20133;-69
2023/01/19 06:48:05;;;;;;;10.52;5.75;;;;;;;3.26;100.00;98129.47;5160274;27;20051;-71
2023/01/19 06:50:31;;;;;;;11.82;5.38;;;;;;;3.43;100.00;98097.81;5160176;27;20385;-67
2023/01/19 06:52:58;;;;;;;10.55;6.10;;;;;;;3.49;100.00;98072.84;5160241;27;20050;-72
2023/01/19 06:55:24;;;;;;;9.02;5.70;;;;;;;3.52;100.00;98038.84;5160113;27;20050;-68
2023/01/19 06:57:56;;;;;;;8.85;5.45;;;;;;;3.57;100.00;98008.81;5160364;27;20089;-72
2023/01/19 07:00:23;;;;;;;8.25;5.25;;;;;;;3.49;100.00;97979.94;5160180;27;20050;-68
2023/01/19 07:02:50;;;;;;;9.73;5.32;;;;;;;3.40;100.00;97955.72;5160568;27;20507;-68
2023/01/19 07:05:16;;;;;;;9.90;6.10;;;;;;;3.33;100.00;98000.78;5159663;27;20050;-71
2023/01/19 07:07:43;;;;;;;9.38;5.65;;;;;;;3.44;100.00;98047.94;5160120;27;20061;-69
2023/01/19 07:10:11;;;;;;;10.02;5.68;;;;;;;3.62;100.00;98043.00;5159652;27;20416;-69
2023/01/19 07:12:37;;;;;;;21.45;9.52;;;;;;;3.63;100.00;98025.59;5160283;27;20084;-71
2023/01/19 07:15:04;;;;;;;10.45;6.20;;;;;;;3.56;100.00;98019.97;5159884;27;20050;-73
2023/01/19 07:17:31;;;;;;;10.85;6.65;;;;;;;3.50;100.00;98035.72;5159660;27;20061;-71
2023/01/19 07:19:58;;;;;;;11.27;5.60;;;;;;;3.36;100.00;98071.31;5159723;27;20050;-71
2023/01/19 07:22:24;;;;;;;7.63;5.32;;;;;;;3.36;100.00;98078.66;5159707;27;20050;-68
2023/01/19 07:24:50;;;;;;;10.45;5.40;;;;;;;3.51;100.00;98072.53;5159740;27;20057;-74
2023/01/19 07:27:16;;;;;;;9.05;5.10;;;;;;;3.60;100.00;98047.97;5159488;27;20077;-69
2023/01/19 07:29:42;;;;;;;9.43;5.47;;;;;;;3.61;100.00;98009.69;5159858;27;20110;-72
2023/01/19 07:32:09;;;;;;;9.98;4.43;;;;;;;3.58;100.00;98017.72;5159406;27;20061;-69
2023/01/19 07:34:35;;;;;;;8.02;5.13;;;;;;;3.59;100.00;98052.59;5159954;27;20051;-73
2023/01/19 07:37:03;;;;;;;9.40;5.07;;;;;;;3.55;100.00;98027.31;5159436;27;20059;-69
2023/01/19 07:39:30;;;;;;;9.02;5.63;;;;;;;3.67;100.00;98008.31;5159867;27;20446;-70
2023/01/19 07:41:57;;;;;;;9.07;5.45;;;;;;;3.63;100.00;97991.16;5158179;27;20114;-70
2023/01/19 07:44:23;;;;;;;12.43;6.03;;;;;;;3.66;100.00;97995.88;5159197;27;20095;-72
2023/01/19 07:46:50;;;;;;;9.00;5.78;;;;;;;3.55;100.00;97981.25;5159412;27;20047;-70
2023/01/19 07:49:16;;;;;;;7.32;4.80;;;;;;;3.32;100.00;98018.16;5159204;27;20054;-70
2023/01/19 07:51:42;;;;;;;9.88;5.78;;;;;;;3.47;100.00;98067.00;5159599;27;20061;-70
2023/01/19 07:54:10;;;;;;;13.35;6.95;;;;;;;3.41;100.00;98033.16;5159470;27;20111;-73
2023/01/19 07:56:36;;;;;;;9.07;4.95;;;;;;;3.49;100.00;98034.13;5159466;27;20178;-67
2023/01/19 07:59:02;;;;;;;10.00;5.57;;;;;;;3.54;100.00;98047.44;5159301;27;20058;-71
2023/01/19 08:01:28;;;;;;;9.27;5.38;;;;;;;3.40;100.00;98064.09;5159088;27;20043;-66
2023/01/19 08:03:55;;;;;;;8.90;5.25;;;;;;;3.42;100.00;98083.50;5158617;27;20399;-66
2023/01/19 08:06:23;;;;;;;11.52;6.13;;;;;;;3.43;100.00;98082.38;5159162;27;20050;-70
2023/01/19 08:08:50;;;;;;;10.70;6.63;;;;;;;3.48;100.00;98052.31;5158818;27;20046;-68
2023/01/19 08:11:17;;;;;;;8.15;5.75;;;;;;;3.46;100.00;98041.00;5158638;27;20058;-69
2023/01/19 08:13:43;;;;;;;8.23;5.97;;;;;;;3.48;100.00;98033.34;5158679;27;20051;-64
2023/01/19 08:16:09;;;;;;;10.88;6.32;;;;;;;3.50;100.00;98033.81;5158606;27;20050;-74
2023/01/19 08:18:36;;;;;;;14.35;8.32;;;;;;;3.50;100.00;98054.69;5158868;27;20069;-69
2023/01/19 08:21:02;;;;;;;10.45;6.85;;;;;;;3.41;100.00;98071.09;5158587;27;20401;-72
2023/01/19 08:23:28;;;;;;;12.48;6.80;;;;;;;3.29;100.00;98117.16;5158680;27;20046;-67
2023/01/19 08:25:54;;;;;;;14.95;7.90;;;;;;;3.23;100.00;98181.63;5158527;27;20054;-68
2023/01/19 08:28:22;;;;;;;11.80;6.53;;;;;;;3.08;100.00;98277.09;5158809;27;20055;-71
2023/01/19 08:30:52;;;;;;;12.82;5.57;;;;;;;2.97;100.00;98352.56;5158103;27;20050;-69
2023/01/19 08:33:19;;;;;;;12.48;7.38;;;;;;;2.67;100.00;98443.91;5158596;27;20304;-65
2023/01/19 08:35:48;;;;;;;25.02;9.65;;;;;;;2.96;100.00;98488.25;5158050;27;20060;-62
2023/01/19 08:38:15;;;;;;;16.95;9.68;;;;;;;2.92;100.00;98450.22;5158413;27;20434;-60
2023/01/19 08:40:42;;;;;;;19.52;9.27;;;;;;;2.79;100.00;98397.94;5158038;27;20135;-62
2023/01/19 08:43:10;;;;;;;20.33;10.57;;;;;;;3.20;100.00;98379.22;5157855;27;20292;-63
2023/01/19 08:45:40;;;;;;;22.52;11.27;;;;;;;3.28;100.00;98311.41;5158149;27;20054;-64
2023/01/19 08:48:07;;;;;;;26.88;11.95;;;;;;;3.41;100.00;98277.00;5158084;27;20057;-68
2023/01/19 08:50:34;;;;;;;28.08;13.40;;;;;;;3.46;100.00;98232.63;5158168;27;20426;-64
2023/01/19 08:53:01;;;;;;;26.67;12.40;;;;;;;3.64;100.00;98217.69;5157701;27;20313;-64
2023/01/19 08:55:28;;;;;;;30.73;11.20;;;;;;;3.37;100.00;98156.09;5157844;27;20046;-67
2023/01/19 08:57:58;;;;;;;21.38;11.43;;;;;;;3.48;100.00;98165.34;5157837;27;20042;-65
2023/01/19 09:00:26;;;;;;;26.10;12.93;;;;;;;3.63;100.00;98152.97;5158195;27;20261;-67
2023/01/19 09:02:52;;;;;;;28.13;13.45;;;;;;;3.71;100.00;98112.19;5157508;27;20055;-70
2023/01/19 09:05:19;;;;;;;25.00;12.13;;;;;;;3.76;100.00;98041.44;5157724;27;20047;-67
2023/01/19 09:07:47;;;;;;;19.67;10.60;;;;;;;3.90;100.00;98021.25;5155471;27;20445;-63
2023/01/19 09:10:14;;;;;;;29.25;13.60;;;;;;;3.74;100.00;98005.78;5157569;27;20050;-63
2023/01/19 09:12:40;;;;;;;20.02;10.13;;;;;;;3.06;100.00;98028.28;5157593;27;20050;-63
2023/01/19 09:15:09;;;;;;;24.83;9.43;;;;;;;3.57;100.00;98130.75;5157596;27;20078;-66
2023/01/19 09:17:35;;;;;;;18.92;9.82;;;;;;;3.73;100.00;98079.31;5157648;27;20051;-63
2023/01/19 09:20:04;;;;;;;28.90;11.48;;;;;;;3.80;100.00;98046.97;5157356;27;20059;-66
2023/01/19 09:22:31;;;;;;;18.15;11.27;;;;;;;4.00;100.00;98021.56;5157747;27;20099;-69
2023/01/19 09:24:57;;;;;;;18.30;9.90;;;;;;;4.03;100.00;97965.03;5157319;27;20133;-64
2023/01/19 09:27:24;;;;;;;24.38;11.05;;;;;;;4.05;100.00;97960.06;5157999;27;20304;-67
2023/01/19 09:29:52;;;;;;;23.17;11.02;;;;;;;3.97;100.00;97921.91;5157475;27;20057;-68
2023/01/19 09:32:20;;;;;;;19.67;10.25;;;;;;;4.00;100.00;97912.31;5158094;27;20363;-69
2023/01/19 09:34:47;;;;;;;26.15;12.50;;;;;;;3.99;100.00;97894.44;5157322;27;20046;-65
2023/01/19 09:37:14;;;;;;;25.70;12.27;;;;;;;3.90;100.00;97900.06;5157640;27;20448;-68
2023/01/19 09:39:41;;;;;;;23.55;13.18;;;;;;;3.77;100.00;97941.97;5157599;27;20159;-65
2023/01/19 09:42:16;;;;;;;29.85;13.45;;;;;;;3.54;100.00;97955.31;5157172;27;20065;-69
2023/01/19 09:44:45;;;;;;;22.77;12.63;;;;;;;3.96;100.00;98007.09;5157484;27;20164;-68
2023/01/19 09:47:14;;;;;;;26.48;11.20;;;;;;;4.14;100.00;97971.50;5157326;27;20142;-65
2023/01/19 09:49:44;;;;;;;25.80;11.95;;;;;;;4.22;100.00;97959.69;5157467;27;20054;-68
2023/01/19 09:52:12;;;;;;;29.67;13.05;;;;;;;3.51;100.00;97915.34;5157432;27;20050;-70
2023/01/19 09:54:46;;;;;;;41.60;18.38;;;;;;;4.07;100.00;97979.47;5157951;27;20054;-68
2023/01/19 09:57:13;;;;;;;17.95;10.45;;;;;;;4.01;100.00;97947.19;5157636;27;20109;-68
2023/01/19 09:59:42;;;;;;;25.20;11.25;;;;;;;3.98;100.00;97930.84;5156978;27;20427;-67
2023/01/19 10:02:23;;;;;;;23.48;11.63;;;;;;;4.17;100.00;97933.63;5157357;27;20399;-66
2023/01/19 10:04:58;;;;;;;18.90;9.30;;;;;;;4.11;100.00;97877.28;5157663;27;20054;-71
2023/01/19 10:07:38;;;;;;;16.52;9.40;;;;;;;3.70;100.00;97909.25;5160757;27;20046;-66
2023/01/19 10:10:18;;;;;;;24.00;11.93;;;;;;;3.86;100.00;97901.09;5160419;27;20055;-63
2023/01/19 10:12:57;;;;;;;22.27;11.05;;;;;;;3.89;100.00;97898.47;5160716;27;20297;-67
2023/01/19 10:15:39;;;;;;;23.27;11.82;;;;;;;4.15;100.00;97900.63;5160588;27;20047;-66
2023/01/19 10:18:12;;;;;;;25.25;10.65;;;;;;;4.26;100.00;97898.16;5160232;27;20050;-65
2023/01/19 10:20:42;;;;;;;13.30;7.07;;;;;;;4.21;100.00;97844.19;5160864;27;20057;-62
2023/01/19 10:23:22;;;;;;;14.52;8.50;;;;;;;4.07;100.00;97785.00;5160489;27;20063;-70
2023/01/19 10:25:50;;;;;;;17.25;9.98;;;;;;;3.92;100.00;97834.63;5160756;27;20061;-69
2023/01/19 10:28:22;;;;;;;19.83;9.00;;;;;;;4.00;100.00;97902.22;5160239;27;20050;-66
2023/01/19 10:30:50;;;;;;;16.20;8.60;;;;;;;4.05;100.00;97882.19;5160691;27;20050;-64
2023/01/19 10:33:17;;;;;;;15.02;8.55;;;;;;;3.90;100.00;97832.28;5160164;27;20392;-67
2023/01/19 10:35:43;;;;;;;14.07;8.40;;;;;;;4.13;100.00;97818.03;5160451;27;20077;-65
2023/01/19 10:38:14;;;;;;;12.88;8.02;;;;;;;4.09;100.00;97798.19;5160298;27;20061;-67
2023/01/19 10:40:48;;;;;;;18.10;9.25;;;;;;;4.22;100.00;97794.19;5159991;27;20082;-63
2023/01/19 10:43:37;;;;;;;14.98;8.02;;;;;;;4.18;100.00;97783.28;5160369;27;20058;-66
2023/01/19 10:46:06;;;;;;;15.73;7.97;;;;;;;4.12;100.00;97846.28;5159972;27;20103;-67
2023/01/19 10:48:38;;;;;;;15.98;8.25;;;;;;;4.25;100.00;97858.59;5160374;27;20050;-66
2023/01/19 10:51:05;;;;;;;17.15;8.02;;;;;;;4.04;100.00;97793.06;5159772;27;20069;-66
2023/01/19 10:53:31;;;;;;;15.13;7.93;;;;;;;4.16;100.00;97773.91;5159751;27;20051;-65
2023/01/19 10:56:16;;;;;;;14.57;7.72;;;;;;;3.95;100.00;97775.03;5160188;27;20051;-63
2023/01/19 10:58:43;;;;;;;;;;;;;;;3.91;100.00;97808.66;5160335;27;20070;-60
2023/01/19 11:01:15;;;;;;;14.98;7.90;;;;;;;4.08;100.00;97821.03;5159952;27;19930;-65
2023/01/19 11:03:41;;;;;;;14.02;8.15;;;;;;;3.94;100.00;97837.78;5159763;27;20137;-62
2023/01/19 11:06:22;;;;;;;15.27;8.35;;;;;;;3.67;100.00;97802.31;5160077;27;20050;-63
2023/01/19 11:08:51;;;;;;;14.60;7.47;;;;;;;3.99;100.00;97826.66;5159605;27;20098;-63
2023/01/19 11:11:18;;;;;;;16.10;8.68;;;;;;;3.83;100.00;97753.47;5159315;27;20383;-67
2023/01/19 11:14:02;;;;;;;16.67;7.78;;;;;;;3.89;100.00;97819.06;5159279;27;20059;-63
2023/01/19 11:16:31;;;;;;;17.70;9.13;;;;;;;4.17;100.00;97852.25;5159225;27;20412;-67
2023/01/19 11:19:00;;;;;;;17.83;9.30;;;;;;;4.03;100.00;97816.66;5159571;27;20460;-65
2023/01/19 11:21:29;;;;;;;14.48;8.90;;;;;;;4.12;100.00;97778.50;5159415;27;20139;-67
2023/01/19 11:23:58;;;;;;;19.35;10.52;;;;;;;4.10;100.00;97753.63;5159696;27;20341;-67
2023/01/19 11:26:27;;;;;;;17.85;9.50;;;;;;;3.99;100.00;97786.75;5159389;27;20050;-65
2023/01/19 11:28:57;;;;;;;18.40;9.05;;;;;;;3.99;100.00;97813.09;5159737;27;20157;-66
2023/01/19 11:31:32;;;;;;;18.27;9.07;;;;;;;4.11;100.00;97771.50;5159344;27;20050;-66
2023/01/19 11:34:00;;;;;;;13.38;7.88;;;;;;;3.82;100.00;97762.75;5159101;27;20376;-64
2023/01/19 11:36:28;;;;;;;15.73;9.32;;;;;;;3.93;100.00;97792.81;5159412;27;20058;-64
2023/01/19 11:38:56;;;;;;;14.70;8.90;;;;;;;4.01;100.00;97789.13;5159045;27;20331;-65
2023/01/19 11:41:26;;;;;;;22.08;9.52;;;;;;;3.83;100.00;97787.94;5159434;27;20309;-65
2023/01/19 11:43:55;;;;;;;17.98;9.20;;;;;;;3.64;100.00;97832.84;5159043;27;20050;-68